Zhaotong, China
Current Conditions -  °F | °C
As of 1:00 PM on Thursday 27 Nov 2014 (Local Time) from ZPPP Reporting Station
Clear Clear  
Wind Chill: 61°   Ceiling: Unl
Heat Index: 61°   Visibility: 6mi
Dew Point: 36°   Wind: 18mph
Humidity: 39%   Direction: 230°SW
Pressure: 30.09"   Gusts: NA
Location:  27.32°N, 103.72°E
Report Text: ZPPP 270500Z 23008MPS CAVOK 16/02 Q1019 NOSIG
Loading
Personal Weather Stations






























Interactive Weather Map New forecast layout! Learn more

10-Day Weather Forecast

Advertisements
Track Severe Weather on mobile